sensor_id;sensor_type;location;lat;lon;timestamp;temperature;humidity
45761;DHT22;31471;51.040;14.414;2022-12-07T00:01:34;1.40;99.90
45761;DHT22;31471;51.040;14.414;2022-12-07T00:04:02;1.40;99.90
45761;DHT22;31471;51.040;14.414;2022-12-07T00:06:36;1.30;99.90
45761;DHT22;31471;51.040;14.414;2022-12-07T00:09:04;1.40;99.90
45761;DHT22;31471;51.040;14.414;2022-12-07T00:11:30;1.40;99.90
45761;DHT22;31471;51.040;14.414;2022-12-07T00:13:59;1.40;99.90
45761;DHT22;31471;51.040;14.414;2022-12-07T00:16:27;1.40;99.90
45761;DHT22;31471;51.040;14.414;2022-12-07T00:18:54;1.40;99.90
45761;DHT22;31471;51.040;14.414;2022-12-07T00:21:21;1.30;99.90
45761;DHT22;31471;51.040;14.414;2022-12-07T00:23:49;1.40;99.90
45761;DHT22;31471;51.040;14.414;2022-12-07T00:26:17;1.40;99.90
45761;DHT22;31471;51.040;14.414;2022-12-07T00:28:57;1.40;99.90
45761;DHT22;31471;51.040;14.414;2022-12-07T00:31:26;1.40;99.90
45761;DHT22;31471;51.040;14.414;2022-12-07T00:33:52;1.50;99.90
45761;DHT22;31471;51.040;14.414;2022-12-07T00:36:20;1.40;99.90
45761;DHT22;31471;51.040;14.414;2022-12-07T00:38:46;1.50;99.90
45761;DHT22;31471;51.040;14.414;2022-12-07T00:41:17;1.50;99.90
45761;DHT22;31471;51.040;14.414;2022-12-07T00:43:44;1.50;99.90
45761;DHT22;31471;51.040;14.414;2022-12-07T00:46:10;1.50;99.90
45761;DHT22;31471;51.040;14.414;2022-12-07T00:48:36;1.50;99.90
45761;DHT22;31471;51.040;14.414;2022-12-07T00:51:03;1.50;99.90
45761;DHT22;31471;51.040;14.414;2022-12-07T00:53:29;1.50;99.90
45761;DHT22;31471;51.040;14.414;2022-12-07T00:55:54;1.50;99.90
45761;DHT22;31471;51.040;14.414;2022-12-07T00:58:22;1.50;99.90
45761;DHT22;31471;51.040;14.414;2022-12-07T01:00:47;1.40;99.90
45761;DHT22;31471;51.040;14.414;2022-12-07T01:03:14;1.50;99.90
45761;DHT22;31471;51.040;14.414;2022-12-07T01:05:49;1.50;99.90
45761;DHT22;31471;51.040;14.414;2022-12-07T01:08:14;1.50;99.90
45761;DHT22;31471;51.040;14.414;2022-12-07T01:10:40;1.50;99.90
45761;DHT22;31471;51.040;14.414;2022-12-07T01:13:06;1.50;99.90
45761;DHT22;31471;51.040;14.414;2022-12-07T01:15:31;1.50;99.90
45761;DHT22;31471;51.040;14.414;2022-12-07T01:17:57;1.50;99.90
45761;DHT22;31471;51.040;14.414;2022-12-07T01:20:22;1.60;99.90
45761;DHT22;31471;51.040;14.414;2022-12-07T01:22:48;1.50;99.90
45761;DHT22;31471;51.040;14.414;2022-12-07T01:25:14;1.50;99.90
45761;DHT22;31471;51.040;14.414;2022-12-07T01:27:39;1.50;99.90
45761;DHT22;31471;51.040;14.414;2022-12-07T01:30:06;1.50;99.90
45761;DHT22;31471;51.040;14.414;2022-12-07T01:32:32;1.50;99.90
45761;DHT22;31471;51.040;14.414;2022-12-07T01:34:58;1.50;99.90
45761;DHT22;31471;51.040;14.414;2022-12-07T01:37:24;1.50;99.90
45761;DHT22;31471;51.040;14.414;2022-12-07T01:39:51;1.50;99.90
45761;DHT22;31471;51.040;14.414;2022-12-07T01:42:17;1.60;99.90
45761;DHT22;31471;51.040;14.414;2022-12-07T01:47:55;1.50;99.90
45761;DHT22;31471;51.040;14.414;2022-12-07T01:50:26;1.40;99.90
45761;DHT22;31471;51.040;14.414;2022-12-07T01:52:55;1.50;99.90
45761;DHT22;31471;51.040;14.414;2022-12-07T01:55:22;1.50;99.90
45761;DHT22;31471;51.040;14.414;2022-12-07T01:57:50;1.50;99.90
45761;DHT22;31471;51.040;14.414;2022-12-07T02:00:18;1.50;99.90
45761;DHT22;31471;51.040;14.414;2022-12-07T02:02:54;1.50;99.90
45761;DHT22;31471;51.040;14.414;2022-12-07T02:05:22;1.50;99.90
45761;DHT22;31471;51.040;14.414;2022-12-07T02:07:49;1.40;99.90
45761;DHT22;31471;51.040;14.414;2022-12-07T02:10:22;1.50;99.90
45761;DHT22;31471;51.040;14.414;2022-12-07T02:12:55;1.50;99.90
45761;DHT22;31471;51.040;14.414;2022-12-07T02:15:36;1.50;99.90
45761;DHT22;31471;51.040;14.414;2022-12-07T02:18:13;1.50;99.90
45761;DHT22;31471;51.040;14.414;2022-12-07T02:20:53;1.50;99.90
45761;DHT22;31471;51.040;14.414;2022-12-07T02:23:38;1.50;99.90
45761;DHT22;31471;51.040;14.414;2022-12-07T02:26:13;1.50;99.90
45761;DHT22;31471;51.040;14.414;2022-12-07T02:34:50;1.40;99.90
45761;DHT22;31471;51.040;14.414;2022-12-07T02:40:12;1.40;99.90
45761;DHT22;31471;51.040;14.414;2022-12-07T02:42:46;1.40;99.90
45761;DHT22;31471;51.040;14.414;2022-12-07T02:45:15;1.40;99.90
45761;DHT22;31471;51.040;14.414;2022-12-07T02:47:43;1.40;99.90
45761;DHT22;31471;51.040;14.414;2022-12-07T02:50:10;1.50;99.90
45761;DHT22;31471;51.040;14.414;2022-12-07T02:52:36;1.50;99.90
45761;DHT22;31471;51.040;14.414;2022-12-07T02:55:02;1.40;99.90
45761;DHT22;31471;51.040;14.414;2022-12-07T02:57:32;1.50;99.90
45761;DHT22;31471;51.040;14.414;2022-12-07T03:02:35;1.60;99.90
45761;DHT22;31471;51.040;14.414;2022-12-07T03:05:06;1.50;99.90
45761;DHT22;31471;51.040;14.414;2022-12-07T03:13:09;1.50;99.90
45761;DHT22;31471;51.040;14.414;2022-12-07T03:15:46;1.50;99.90
45761;DHT22;31471;51.040;14.414;2022-12-07T03:18:18;1.60;99.90
45761;DHT22;31471;51.040;14.414;2022-12-07T03:20:45;1.50;99.90
45761;DHT22;31471;51.040;14.414;2022-12-07T03:23:13;1.60;99.90
45761;DHT22;31471;51.040;14.414;2022-12-07T03:25:44;1.50;99.90
45761;DHT22;31471;51.040;14.414;2022-12-07T03:28:12;1.60;99.90
45761;DHT22;31471;51.040;14.414;2022-12-07T03:30:52;1.50;99.90
45761;DHT22;31471;51.040;14.414;2022-12-07T03:33:23;1.40;99.90
45761;DHT22;31471;51.040;14.414;2022-12-07T03:36:03;1.50;99.90
45761;DHT22;31471;51.040;14.414;2022-12-07T03:38:58;1.50;99.90
45761;DHT22;31471;51.040;14.414;2022-12-07T03:41:30;1.50;99.90
45761;DHT22;31471;51.040;14.414;2022-12-07T03:43:57;1.50;99.90
45761;DHT22;31471;51.040;14.414;2022-12-07T03:47:16;1.50;99.90
45761;DHT22;31471;51.040;14.414;2022-12-07T03:49:48;1.50;99.90
45761;DHT22;31471;51.040;14.414;2022-12-07T03:52:53;1.50;99.90
45761;DHT22;31471;51.040;14.414;2022-12-07T03:55:29;1.30;99.90
45761;DHT22;31471;51.040;14.414;2022-12-07T03:58:00;1.20;99.90
45761;DHT22;31471;51.040;14.414;2022-12-07T04:00:26;1.20;99.90
45761;DHT22;31471;51.040;14.414;2022-12-07T04:02:53;1.20;99.90
45761;DHT22;31471;51.040;14.414;2022-12-07T04:05:19;1.20;99.90
45761;DHT22;31471;51.040;14.414;2022-12-07T04:07:44;1.20;99.90
45761;DHT22;31471;51.040;14.414;2022-12-07T04:10:10;1.20;99.90
45761;DHT22;31471;51.040;14.414;2022-12-07T04:12:36;1.20;99.90
45761;DHT22;31471;51.040;14.414;2022-12-07T04:15:03;1.20;99.90
45761;DHT22;31471;51.040;14.414;2022-12-07T04:17:28;1.30;99.90
45761;DHT22;31471;51.040;14.414;2022-12-07T04:19:54;1.20;99.90
45761;DHT22;31471;51.040;14.414;2022-12-07T04:22:20;1.20;99.90
45761;DHT22;31471;51.040;14.414;2022-12-07T04:24:45;1.20;99.90
45761;DHT22;31471;51.040;14.414;2022-12-07T04:27:11;1.20;99.90
45761;DHT22;31471;51.040;14.414;2022-12-07T04:29:36;1.30;99.90
45761;DHT22;31471;51.040;14.414;2022-12-07T04:32:02;1.20;99.90
45761;DHT22;31471;51.040;14.414;2022-12-07T04:34:28;1.30;99.90
45761;DHT22;31471;51.040;14.414;2022-12-07T04:36:53;1.30;99.90
45761;DHT22;31471;51.040;14.414;2022-12-07T04:39:25;1.30;99.90
45761;DHT22;31471;51.040;14.414;2022-12-07T04:41:51;1.30;99.90
45761;DHT22;31471;51.040;14.414;2022-12-07T04:44:18;1.20;99.90
45761;DHT22;31471;51.040;14.414;2022-12-07T04:46:43;1.20;99.90
45761;DHT22;31471;51.040;14.414;2022-12-07T04:49:09;1.30;99.90
45761;DHT22;31471;51.040;14.414;2022-12-07T04:51:35;1.30;99.90
45761;DHT22;31471;51.040;14.414;2022-12-07T04:54:00;1.30;99.90
45761;DHT22;31471;51.040;14.414;2022-12-07T04:56:26;1.20;99.90
45761;DHT22;31471;51.040;14.414;2022-12-07T04:58:53;1.20;99.90
45761;DHT22;31471;51.040;14.414;2022-12-07T05:01:19;1.10;99.90
45761;DHT22;31471;51.040;14.414;2022-12-07T05:03:45;1.20;99.90
45761;DHT22;31471;51.040;14.414;2022-12-07T05:06:11;1.20;99.90
45761;DHT22;31471;51.040;14.414;2022-12-07T05:08:37;1.20;99.90
45761;DHT22;31471;51.040;14.414;2022-12-07T05:11:04;1.30;99.90
45761;DHT22;31471;51.040;14.414;2022-12-07T05:13:31;1.20;99.90
45761;DHT22;31471;51.040;14.414;2022-12-07T05:15:57;1.10;99.90
45761;DHT22;31471;51.040;14.414;2022-12-07T05:18:23;1.10;99.90
45761;DHT22;31471;51.040;14.414;2022-12-07T05:20:48;1.20;99.90
45761;DHT22;31471;51.040;14.414;2022-12-07T05:23:14;1.10;99.90
45761;DHT22;31471;51.040;14.414;2022-12-07T05:25:40;1.20;99.90
45761;DHT22;31471;51.040;14.414;2022-12-07T05:28:06;1.10;99.90
45761;DHT22;31471;51.040;14.414;2022-12-07T05:30:32;1.10;99.90
45761;DHT22;31471;51.040;14.414;2022-12-07T05:32:57;1.10;99.90
45761;DHT22;31471;51.040;14.414;2022-12-07T05:35:24;1.10;99.90
45761;DHT22;31471;51.040;14.414;2022-12-07T05:37:50;1.00;99.90
45761;DHT22;31471;51.040;14.414;2022-12-07T05:40:15;1.10;99.90
45761;DHT22;31471;51.040;14.414;2022-12-07T05:42:41;1.10;99.90
45761;DHT22;31471;51.040;14.414;2022-12-07T05:45:09;1.20;99.90
45761;DHT22;31471;51.040;14.414;2022-12-07T05:47:34;1.20;99.90
45761;DHT22;31471;51.040;14.414;2022-12-07T05:50:00;1.10;99.90
45761;DHT22;31471;51.040;14.414;2022-12-07T05:52:26;1.10;99.90
45761;DHT22;31471;51.040;14.414;2022-12-07T05:54:52;1.10;99.90
45761;DHT22;31471;51.040;14.414;2022-12-07T05:57:18;1.10;99.90
45761;DHT22;31471;51.040;14.414;2022-12-07T05:59:43;1.00;99.90
45761;DHT22;31471;51.040;14.414;2022-12-07T06:02:12;1.00;99.90
45761;DHT22;31471;51.040;14.414;2022-12-07T06:04:40;1.00;99.90
45761;DHT22;31471;51.040;14.414;2022-12-07T06:07:06;1.00;99.90
45761;DHT22;31471;51.040;14.414;2022-12-07T06:09:32;1.00;99.90
45761;DHT22;31471;51.040;14.414;2022-12-07T06:11:58;1.00;99.90
45761;DHT22;31471;51.040;14.414;2022-12-07T06:14:43;1.00;99.90
45761;DHT22;31471;51.040;14.414;2022-12-07T06:17:09;1.00;99.90
45761;DHT22;31471;51.040;14.414;2022-12-07T06:19:35;1.00;99.90
45761;DHT22;31471;51.040;14.414;2022-12-07T06:22:00;1.00;99.90
45761;DHT22;31471;51.040;14.414;2022-12-07T06:24:26;1.00;99.90
45761;DHT22;31471;51.040;14.414;2022-12-07T06:26:52;0.90;99.90
45761;DHT22;31471;51.040;14.414;2022-12-07T06:29:18;0.90;99.90
45761;DHT22;31471;51.040;14.414;2022-12-07T06:31:44;0.90;99.90
45761;DHT22;31471;51.040;14.414;2022-12-07T06:34:11;1.00;99.90
45761;DHT22;31471;51.040;14.414;2022-12-07T06:36:37;1.00;99.90
45761;DHT22;31471;51.040;14.414;2022-12-07T06:39:04;1.00;99.90
45761;DHT22;31471;51.040;14.414;2022-12-07T06:41:30;1.00;99.90
45761;DHT22;31471;51.040;14.414;2022-12-07T06:43:55;1.00;99.90
45761;DHT22;31471;51.040;14.414;2022-12-07T06:46:21;1.00;99.90
45761;DHT22;31471;51.040;14.414;2022-12-07T06:48:46;1.00;99.90
45761;DHT22;31471;51.040;14.414;2022-12-07T06:51:12;1.00;99.90
45761;DHT22;31471;51.040;14.414;2022-12-07T06:53:37;1.00;99.90
45761;DHT22;31471;51.040;14.414;2022-12-07T06:56:04;1.00;99.90
45761;DHT22;31471;51.040;14.414;2022-12-07T06:58:30;1.00;99.90
45761;DHT22;31471;51.040;14.414;2022-12-07T07:00:56;1.00;99.90
45761;DHT22;31471;51.040;14.414;2022-12-07T07:03:21;1.00;99.90
45761;DHT22;31471;51.040;14.414;2022-12-07T07:05:47;1.00;99.90
45761;DHT22;31471;51.040;14.414;2022-12-07T07:08:13;1.00;99.90
45761;DHT22;31471;51.040;14.414;2022-12-07T07:10:39;1.00;99.90
45761;DHT22;31471;51.040;14.414;2022-12-07T07:13:05;1.10;99.90
45761;DHT22;31471;51.040;14.414;2022-12-07T07:15:31;1.10;99.90
45761;DHT22;31471;51.040;14.414;2022-12-07T07:17:56;1.10;99.90
45761;DHT22;31471;51.040;14.414;2022-12-07T07:20:22;1.10;99.90
45761;DHT22;31471;51.040;14.414;2022-12-07T07:22:48;1.10;99.90
45761;DHT22;31471;51.040;14.414;2022-12-07T07:25:14;1.20;99.90
45761;DHT22;31471;51.040;14.414;2022-12-07T07:27:40;1.20;99.90
45761;DHT22;31471;51.040;14.414;2022-12-07T07:30:06;1.20;99.90
45761;DHT22;31471;51.040;14.414;2022-12-07T07:32:32;1.30;99.90
45761;DHT22;31471;51.040;14.414;2022-12-07T07:34:57;1.30;99.90
45761;DHT22;31471;51.040;14.414;2022-12-07T07:37:23;1.30;99.90
45761;DHT22;31471;51.040;14.414;2022-12-07T07:39:49;1.30;99.90
45761;DHT22;31471;51.040;14.414;2022-12-07T07:42:15;1.40;99.90
45761;DHT22;31471;51.040;14.414;2022-12-07T07:44:42;1.40;99.90
45761;DHT22;31471;51.040;14.414;2022-12-07T07:47:08;1.30;99.90
45761;DHT22;31471;51.040;14.414;2022-12-07T07:49:34;1.40;99.90
45761;DHT22;31471;51.040;14.414;2022-12-07T07:52:00;1.40;99.90
45761;DHT22;31471;51.040;14.414;2022-12-07T07:54:26;1.40;99.90
45761;DHT22;31471;51.040;14.414;2022-12-07T07:56:52;1.40;99.90
45761;DHT22;31471;51.040;14.414;2022-12-07T07:59:18;1.40;99.90
45761;DHT22;31471;51.040;14.414;2022-12-07T08:01:43;1.30;99.90
45761;DHT22;31471;51.040;14.414;2022-12-07T08:04:09;1.40;99.90
45761;DHT22;31471;51.040;14.414;2022-12-07T08:06:35;1.40;99.90
45761;DHT22;31471;51.040;14.414;2022-12-07T08:09:00;1.30;99.90
45761;DHT22;31471;51.040;14.414;2022-12-07T08:11:26;1.30;99.90
45761;DHT22;31471;51.040;14.414;2022-12-07T08:13:52;1.30;99.90
45761;DHT22;31471;51.040;14.414;2022-12-07T08:16:17;1.30;99.90
45761;DHT22;31471;51.040;14.414;2022-12-07T08:18:43;1.40;99.90
45761;DHT22;31471;51.040;14.414;2022-12-07T08:21:10;1.40;99.90
45761;DHT22;31471;51.040;14.414;2022-12-07T08:23:36;1.30;99.90
45761;DHT22;31471;51.040;14.414;2022-12-07T08:26:03;1.30;99.90
45761;DHT22;31471;51.040;14.414;2022-12-07T08:28:30;1.30;99.90
45761;DHT22;31471;51.040;14.414;2022-12-07T08:31:07;1.30;99.90
45761;DHT22;31471;51.040;14.414;2022-12-07T08:33:34;1.30;99.90
45761;DHT22;31471;51.040;14.414;2022-12-07T08:36:05;1.30;99.90
45761;DHT22;31471;51.040;14.414;2022-12-07T08:38:31;1.30;99.90
45761;DHT22;31471;51.040;14.414;2022-12-07T08:40:57;1.30;99.90
45761;DHT22;31471;51.040;14.414;2022-12-07T08:43:23;1.40;99.90
45761;DHT22;31471;51.040;14.414;2022-12-07T08:46:10;1.30;99.90
45761;DHT22;31471;51.040;14.414;2022-12-07T08:48:40;1.40;99.90
45761;DHT22;31471;51.040;14.414;2022-12-07T08:51:08;1.40;99.90
45761;DHT22;31471;51.040;14.414;2022-12-07T08:53:35;1.40;99.90
45761;DHT22;31471;51.040;14.414;2022-12-07T08:56:02;1.40;99.90
45761;DHT22;31471;51.040;14.414;2022-12-07T08:58:27;1.50;99.90
45761;DHT22;31471;51.040;14.414;2022-12-07T09:00:53;1.40;99.90
45761;DHT22;31471;51.040;14.414;2022-12-07T09:03:18;1.50;99.90
45761;DHT22;31471;51.040;14.414;2022-12-07T09:05:44;1.50;99.90
45761;DHT22;31471;51.040;14.414;2022-12-07T09:08:10;1.50;99.90
45761;DHT22;31471;51.040;14.414;2022-12-07T09:10:35;1.60;99.90
45761;DHT22;31471;51.040;14.414;2022-12-07T09:13:01;1.60;99.90
45761;DHT22;31471;51.040;14.414;2022-12-07T09:15:30;1.60;99.90
45761;DHT22;31471;51.040;14.414;2022-12-07T09:17:56;1.70;99.90
45761;DHT22;31471;51.040;14.414;2022-12-07T09:20:22;1.70;99.90
45761;DHT22;31471;51.040;14.414;2022-12-07T09:22:48;1.70;99.90
45761;DHT22;31471;51.040;14.414;2022-12-07T09:25:14;1.70;99.90
45761;DHT22;31471;51.040;14.414;2022-12-07T09:27:40;1.80;99.90
45761;DHT22;31471;51.040;14.414;2022-12-07T09:30:06;1.80;99.90
45761;DHT22;31471;51.040;14.414;2022-12-07T09:32:32;1.80;99.90
45761;DHT22;31471;51.040;14.414;2022-12-07T09:34:57;1.90;99.90
45761;DHT22;31471;51.040;14.414;2022-12-07T09:37:23;2.00;99.90
45761;DHT22;31471;51.040;14.414;2022-12-07T09:39:49;2.00;99.90
45761;DHT22;31471;51.040;14.414;2022-12-07T09:42:34;2.00;99.90
45761;DHT22;31471;51.040;14.414;2022-12-07T09:45:01;2.10;99.90
45761;DHT22;31471;51.040;14.414;2022-12-07T09:47:27;2.10;99.90
45761;DHT22;31471;51.040;14.414;2022-12-07T09:50:00;2.10;99.90
45761;DHT22;31471;51.040;14.414;2022-12-07T09:52:28;2.10;99.90
45761;DHT22;31471;51.040;14.414;2022-12-07T09:54:54;2.10;99.90
45761;DHT22;31471;51.040;14.414;2022-12-07T09:57:28;2.10;99.90
45761;DHT22;31471;51.040;14.414;2022-12-07T09:59:57;2.10;99.90
45761;DHT22;31471;51.040;14.414;2022-12-07T10:02:54;2.10;99.90
45761;DHT22;31471;51.040;14.414;2022-12-07T10:05:32;2.10;99.90
45761;DHT22;31471;51.040;14.414;2022-12-07T10:08:00;2.20;99.90
45761;DHT22;31471;51.040;14.414;2022-12-07T10:10:30;2.30;99.90
45761;DHT22;31471;51.040;14.414;2022-12-07T10:13:13;2.40;99.90
45761;DHT22;31471;51.040;14.414;2022-12-07T10:15:41;2.40;99.90
45761;DHT22;31471;51.040;14.414;2022-12-07T10:18:27;2.40;99.90
45761;DHT22;31471;51.040;14.414;2022-12-07T10:23:35;2.40;99.90
45761;DHT22;31471;51.040;14.414;2022-12-07T10:31:40;2.40;99.90
45761;DHT22;31471;51.040;14.414;2022-12-07T10:34:26;2.40;99.90
45761;DHT22;31471;51.040;14.414;2022-12-07T10:36:53;2.50;99.90
45761;DHT22;31471;51.040;14.414;2022-12-07T10:39:44;2.60;99.90
45761;DHT22;31471;51.040;14.414;2022-12-07T10:42:19;2.60;99.90
45761;DHT22;31471;51.040;14.414;2022-12-07T10:44:45;2.80;99.90
45761;DHT22;31471;51.040;14.414;2022-12-07T10:53:17;2.80;99.90
45761;DHT22;31471;51.040;14.414;2022-12-07T10:56:09;2.70;99.90
45761;DHT22;31471;51.040;14.414;2022-12-07T11:01:46;2.90;99.90
45761;DHT22;31471;51.040;14.414;2022-12-07T11:04:35;2.90;99.90
45761;DHT22;31471;51.040;14.414;2022-12-07T11:07:13;3.00;99.90
45761;DHT22;31471;51.040;14.414;2022-12-07T11:15:19;3.00;99.90
45761;DHT22;31471;51.040;14.414;2022-12-07T11:18:07;3.10;99.90
45761;DHT22;31471;51.040;14.414;2022-12-07T11:23:39;3.30;99.90
45761;DHT22;31471;51.040;14.414;2022-12-07T11:32:14;3.30;99.90
45761;DHT22;31471;51.040;14.414;2022-12-07T11:37:30;3.20;99.90
45761;DHT22;31471;51.040;14.414;2022-12-07T11:40:19;3.20;99.90
45761;DHT22;31471;51.040;14.414;2022-12-07T11:43:04;3.20;99.90
45761;DHT22;31471;51.040;14.414;2022-12-07T11:45:34;3.10;99.90
45761;DHT22;31471;51.040;14.414;2022-12-07T11:48:20;3.10;99.90
45761;DHT22;31471;51.040;14.414;2022-12-07T11:50:54;3.10;99.90
45761;DHT22;31471;51.040;14.414;2022-12-07T11:53:28;3.10;99.90
45761;DHT22;31471;51.040;14.414;2022-12-07T12:03:45;2.70;99.90
45761;DHT22;31471;51.040;14.414;2022-12-07T12:06:11;2.80;99.90
45761;DHT22;31471;51.040;14.414;2022-12-07T12:08:52;2.60;99.90
45761;DHT22;31471;51.040;14.414;2022-12-07T12:16:44;2.50;99.90
45761;DHT22;31471;51.040;14.414;2022-12-07T12:19:25;2.50;99.90
45761;DHT22;31471;51.040;14.414;2022-12-07T12:22:06;2.60;99.90
45761;DHT22;31471;51.040;14.414;2022-12-07T12:24:37;2.70;99.90
45761;DHT22;31471;51.040;14.414;2022-12-07T12:27:15;2.80;99.90
45761;DHT22;31471;51.040;14.414;2022-12-07T12:29:43;2.90;99.90
45761;DHT22;31471;51.040;14.414;2022-12-07T12:32:24;2.80;99.90
45761;DHT22;31471;51.040;14.414;2022-12-07T12:42:51;2.50;99.90
45761;DHT22;31471;51.040;14.414;2022-12-07T12:45:32;2.40;99.90
45761;DHT22;31471;51.040;14.414;2022-12-07T12:47:59;2.40;99.90
45761;DHT22;31471;51.040;14.414;2022-12-07T12:50:29;2.40;99.90
45761;DHT22;31471;51.040;14.414;2022-12-07T12:53:02;2.40;99.90
45761;DHT22;31471;51.040;14.414;2022-12-07T12:58:30;2.40;99.90
45761;DHT22;31471;51.040;14.414;2022-12-07T13:01:31;2.40;99.90
45761;DHT22;31471;51.040;14.414;2022-12-07T13:03:58;2.50;99.90
45761;DHT22;31471;51.040;14.414;2022-12-07T13:08:50;2.40;99.90
45761;DHT22;31471;51.040;14.414;2022-12-07T13:11:39;2.50;99.90
45761;DHT22;31471;51.040;14.414;2022-12-07T13:19:59;2.60;99.90
45761;DHT22;31471;51.040;14.414;2022-12-07T13:25:07;2.60;99.90
45761;DHT22;31471;51.040;14.414;2022-12-07T13:27:37;2.60;99.90
45761;DHT22;31471;51.040;14.414;2022-12-07T13:30:18;2.70;99.90
45761;DHT22;31471;51.040;14.414;2022-12-07T13:32:53;2.70;99.90
45761;DHT22;31471;51.040;14.414;2022-12-07T13:35:34;2.70;99.90
45761;DHT22;31471;51.040;14.414;2022-12-07T13:38:02;2.70;99.90
45761;DHT22;31471;51.040;14.414;2022-12-07T13:40:29;2.70;99.90
45761;DHT22;31471;51.040;14.414;2022-12-07T13:43:03;2.60;99.90
45761;DHT22;31471;51.040;14.414;2022-12-07T13:45:31;2.60;99.90
45761;DHT22;31471;51.040;14.414;2022-12-07T13:48:32;2.60;99.90
45761;DHT22;31471;51.040;14.414;2022-12-07T13:50:59;2.60;99.90
45761;DHT22;31471;51.040;14.414;2022-12-07T13:53:26;2.60;99.90
45761;DHT22;31471;51.040;14.414;2022-12-07T13:55:59;2.60;99.90
45761;DHT22;31471;51.040;14.414;2022-12-07T13:58:26;2.60;99.90
45761;DHT22;31471;51.040;14.414;2022-12-07T14:00:52;2.70;99.90
45761;DHT22;31471;51.040;14.414;2022-12-07T14:05:44;2.60;99.90
45761;DHT22;31471;51.040;14.414;2022-12-07T14:10:41;2.60;99.90
45761;DHT22;31471;51.040;14.414;2022-12-07T14:13:39;2.50;99.90
45761;DHT22;31471;51.040;14.414;2022-12-07T14:18:47;2.40;99.90
45761;DHT22;31471;51.040;14.414;2022-12-07T14:23:39;2.30;99.90
45761;DHT22;31471;51.040;14.414;2022-12-07T14:26:14;2.20;99.90
45761;DHT22;31471;51.040;14.414;2022-12-07T14:28:41;2.20;99.90
45761;DHT22;31471;51.040;14.414;2022-12-07T14:31:12;2.20;99.90
45761;DHT22;31471;51.040;14.414;2022-12-07T14:33:39;2.20;99.90
45761;DHT22;31471;51.040;14.414;2022-12-07T14:36:05;2.10;99.90
45761;DHT22;31471;51.040;14.414;2022-12-07T14:38:31;2.10;99.90
45761;DHT22;31471;51.040;14.414;2022-12-07T14:40:57;2.00;99.90
45761;DHT22;31471;51.040;14.414;2022-12-07T14:43:43;1.90;99.90
45761;DHT22;31471;51.040;14.414;2022-12-07T14:46:10;1.90;99.90
45761;DHT22;31471;51.040;14.414;2022-12-07T14:48:35;1.90;99.90
45761;DHT22;31471;51.040;14.414;2022-12-07T14:51:01;1.80;99.90
45761;DHT22;31471;51.040;14.414;2022-12-07T14:53:35;1.90;99.90
45761;DHT22;31471;51.040;14.414;2022-12-07T14:56:01;1.90;99.90
45761;DHT22;31471;51.040;14.414;2022-12-07T14:58:27;1.80;99.90
45761;DHT22;31471;51.040;14.414;2022-12-07T15:00:53;1.80;99.90
45761;DHT22;31471;51.040;14.414;2022-12-07T15:03:18;1.80;99.90
45761;DHT22;31471;51.040;14.414;2022-12-07T15:05:44;1.80;99.90
45761;DHT22;31471;51.040;14.414;2022-12-07T15:08:13;1.70;99.90
45761;DHT22;31471;51.040;14.414;2022-12-07T15:10:39;1.70;99.90
45761;DHT22;31471;51.040;14.414;2022-12-07T15:13:05;1.70;99.90
45761;DHT22;31471;51.040;14.414;2022-12-07T15:15:51;1.60;99.90
45761;DHT22;31471;51.040;14.414;2022-12-07T15:18:18;1.60;99.90
45761;DHT22;31471;51.040;14.414;2022-12-07T15:20:44;1.60;99.90
45761;DHT22;31471;51.040;14.414;2022-12-07T15:23:10;1.60;99.90
45761;DHT22;31471;51.040;14.414;2022-12-07T15:25:35;1.60;99.90
45761;DHT22;31471;51.040;14.414;2022-12-07T15:28:01;1.70;99.90
45761;DHT22;31471;51.040;14.414;2022-12-07T15:30:26;1.70;99.90
45761;DHT22;31471;51.040;14.414;2022-12-07T15:32:52;1.80;99.90
45761;DHT22;31471;51.040;14.414;2022-12-07T15:35:19;1.80;99.90
45761;DHT22;31471;51.040;14.414;2022-12-07T15:37:44;1.80;99.90
45761;DHT22;31471;51.040;14.414;2022-12-07T15:40:10;1.80;99.90
45761;DHT22;31471;51.040;14.414;2022-12-07T15:42:36;1.80;99.90
45761;DHT22;31471;51.040;14.414;2022-12-07T15:45:03;1.90;99.90
45761;DHT22;31471;51.040;14.414;2022-12-07T15:47:30;1.90;99.90
45761;DHT22;31471;51.040;14.414;2022-12-07T15:49:55;1.90;99.90
45761;DHT22;31471;51.040;14.414;2022-12-07T15:52:21;1.90;99.90
45761;DHT22;31471;51.040;14.414;2022-12-07T15:54:47;1.90;99.90
45761;DHT22;31471;51.040;14.414;2022-12-07T15:57:13;1.90;99.90
45761;DHT22;31471;51.040;14.414;2022-12-07T15:59:38;1.90;99.90
45761;DHT22;31471;51.040;14.414;2022-12-07T16:02:04;1.80;99.90
45761;DHT22;31471;51.040;14.414;2022-12-07T16:04:30;1.80;99.90
45761;DHT22;31471;51.040;14.414;2022-12-07T16:06:56;1.70;99.90
45761;DHT22;31471;51.040;14.414;2022-12-07T16:09:22;1.50;99.90
45761;DHT22;31471;51.040;14.414;2022-12-07T16:11:47;1.50;99.90
45761;DHT22;31471;51.040;14.414;2022-12-07T16:14:15;1.50;99.90
45761;DHT22;31471;51.040;14.414;2022-12-07T16:16:41;1.50;99.90
45761;DHT22;31471;51.040;14.414;2022-12-07T16:19:07;1.60;99.90
45761;DHT22;31471;51.040;14.414;2022-12-07T16:21:34;1.60;99.90
45761;DHT22;31471;51.040;14.414;2022-12-07T16:24:01;1.50;99.90
45761;DHT22;31471;51.040;14.414;2022-12-07T16:26:27;1.50;99.90
45761;DHT22;31471;51.040;14.414;2022-12-07T16:28:53;1.50;99.90
45761;DHT22;31471;51.040;14.414;2022-12-07T16:31:21;1.50;99.90
45761;DHT22;31471;51.040;14.414;2022-12-07T16:33:48;1.50;99.90
45761;DHT22;31471;51.040;14.414;2022-12-07T16:36:17;1.60;99.90
45761;DHT22;31471;51.040;14.414;2022-12-07T16:38:43;1.60;99.90
45761;DHT22;31471;51.040;14.414;2022-12-07T16:41:09;1.60;99.90
45761;DHT22;31471;51.040;14.414;2022-12-07T16:43:36;1.60;99.90
45761;DHT22;31471;51.040;14.414;2022-12-07T16:46:02;1.60;99.90
45761;DHT22;31471;51.040;14.414;2022-12-07T16:48:28;1.60;99.90
45761;DHT22;31471;51.040;14.414;2022-12-07T16:50:54;1.60;99.90
45761;DHT22;31471;51.040;14.414;2022-12-07T16:53:21;1.60;99.90
45761;DHT22;31471;51.040;14.414;2022-12-07T16:55:48;1.60;99.90
45761;DHT22;31471;51.040;14.414;2022-12-07T16:58:14;1.60;99.90
45761;DHT22;31471;51.040;14.414;2022-12-07T17:00:41;1.60;99.90
45761;DHT22;31471;51.040;14.414;2022-12-07T17:03:07;1.70;99.90
45761;DHT22;31471;51.040;14.414;2022-12-07T17:05:33;1.60;99.90
45761;DHT22;31471;51.040;14.414;2022-12-07T17:07:59;1.60;99.90
45761;DHT22;31471;51.040;14.414;2022-12-07T17:10:25;1.60;99.90
45761;DHT22;31471;51.040;14.414;2022-12-07T17:12:51;1.60;99.90
45761;DHT22;31471;51.040;14.414;2022-12-07T17:15:17;1.60;99.90
45761;DHT22;31471;51.040;14.414;2022-12-07T17:17:51;1.60;99.90
45761;DHT22;31471;51.040;14.414;2022-12-07T17:20:18;1.60;99.90
45761;DHT22;31471;51.040;14.414;2022-12-07T17:22:44;1.60;99.90